sensor_id;sensor_type;location;lat;lon;timestamp;P1;durP1;ratioP1;P2;durP2;ratioP2
61373;SDS011;47242;48.158;-1.586;2023-04-15T04:31:16;9.27;;;1.95;;
61373;SDS011;47242;48.158;-1.586;2023-04-15T04:33:42;2.53;;;1.70;;
61373;SDS011;47242;48.158;-1.586;2023-04-15T04:36:08;5.22;;;1.58;;
61373;SDS011;47242;48.158;-1.586;2023-04-15T04:38:33;7.20;;;2.28;;
61373;SDS011;47242;48.158;-1.586;2023-04-15T04:40:59;5.35;;;1.60;;
61373;SDS011;47242;48.158;-1.586;2023-04-15T04:43:25;3.90;;;1.40;;
61373;SDS011;47242;48.158;-1.586;2023-04-15T04:45:51;10.80;;;2.10;;
61373;SDS011;47242;48.158;-1.586;2023-04-15T04:48:17;3.67;;;1.35;;
61373;SDS011;47242;48.158;-1.586;2023-04-15T04:50:43;5.95;;;1.70;;
61373;SDS011;47242;48.158;-1.586;2023-04-15T04:53:09;4.25;;;1.77;;
61373;SDS011;47242;48.158;-1.586;2023-04-15T04:55:35;5.75;;;1.80;;
61373;SDS011;47242;48.158;-1.586;2023-04-15T04:58:01;6.85;;;1.77;;
61373;SDS011;47242;48.158;-1.586;2023-04-15T05:00:27;8.73;;;1.65;;
61373;SDS011;47242;48.158;-1.586;2023-04-15T05:02:53;9.60;;;1.83;;
61373;SDS011;47242;48.158;-1.586;2023-04-15T05:05:20;2.83;;;2.08;;
61373;SDS011;47242;48.158;-1.586;2023-04-15T05:07:45;9.85;;;2.28;;
61373;SDS011;47242;48.158;-1.586;2023-04-15T05:10:13;4.55;;;1.67;;
61373;SDS011;47242;48.158;-1.586;2023-04-15T05:12:39;4.82;;;1.80;;
61373;SDS011;47242;48.158;-1.586;2023-04-15T05:15:05;3.17;;;1.55;;
61373;SDS011;47242;48.158;-1.586;2023-04-15T05:17:31;9.63;;;2.35;;
61373;SDS011;47242;48.158;-1.586;2023-04-15T05:19:59;6.78;;;2.08;;
61373;SDS011;47242;48.158;-1.586;2023-04-15T05:22:25;4.72;;;1.70;;
61373;SDS011;47242;48.158;-1.586;2023-04-15T05:24:50;6.20;;;1.98;;
61373;SDS011;47242;48.158;-1.586;2023-04-15T05:27:16;8.80;;;2.20;;
61373;SDS011;47242;48.158;-1.586;2023-04-15T05:29:43;6.05;;;2.28;;
61373;SDS011;47242;48.158;-1.586;2023-04-15T05:32:09;4.93;;;1.80;;
61373;SDS011;47242;48.158;-1.586;2023-04-15T05:34:34;5.80;;;2.22;;
61373;SDS011;47242;48.158;-1.586;2023-04-15T05:37:00;9.07;;;2.17;;
61373;SDS011;47242;48.158;-1.586;2023-04-15T05:39:26;3.30;;;1.40;;
61373;SDS011;47242;48.158;-1.586;2023-04-15T05:41:51;8.63;;;2.15;;
61373;SDS011;47242;48.158;-1.586;2023-04-15T05:44:18;6.03;;;2.25;;
61373;SDS011;47242;48.158;-1.586;2023-04-15T05:46:43;4.65;;;1.65;;
61373;SDS011;47242;48.158;-1.586;2023-04-15T05:49:09;6.40;;;2.10;;
61373;SDS011;47242;48.158;-1.586;2023-04-15T05:51:35;6.22;;;2.30;;
61373;SDS011;47242;48.158;-1.586;2023-04-15T05:54:01;7.47;;;1.80;;
61373;SDS011;47242;48.158;-1.586;2023-04-15T05:56:26;12.75;;;2.88;;
61373;SDS011;47242;48.158;-1.586;2023-04-15T05:58:52;3.65;;;2.00;;
61373;SDS011;47242;48.158;-1.586;2023-04-15T06:01:18;2.35;;;1.80;;
61373;SDS011;47242;48.158;-1.586;2023-04-15T06:03:44;5.47;;;1.85;;
61373;SDS011;47242;48.158;-1.586;2023-04-15T06:06:10;4.75;;;1.88;;
61373;SDS011;47242;48.158;-1.586;2023-04-15T06:08:36;6.38;;;2.35;;
61373;SDS011;47242;48.158;-1.586;2023-04-15T06:11:01;8.52;;;2.20;;
61373;SDS011;47242;48.158;-1.586;2023-04-15T06:13:27;4.95;;;2.33;;
61373;SDS011;47242;48.158;-1.586;2023-04-15T06:15:53;6.13;;;2.72;;
61373;SDS011;47242;48.158;-1.586;2023-04-15T06:18:19;9.60;;;2.08;;
61373;SDS011;47242;48.158;-1.586;2023-04-15T06:20:45;9.25;;;2.53;;
61373;SDS011;47242;48.158;-1.586;2023-04-15T06:23:10;8.80;;;1.98;;
61373;SDS011;47242;48.158;-1.586;2023-04-15T06:28:21;4.45;;;2.15;;
61373;SDS011;47242;48.158;-1.586;2023-04-15T06:30:47;12.77;;;2.83;;
61373;SDS011;47242;48.158;-1.586;2023-04-15T06:33:14;6.13;;;2.70;;
61373;SDS011;47242;48.158;-1.586;2023-04-15T06:35:43;4.63;;;1.65;;
61373;SDS011;47242;48.158;-1.586;2023-04-15T06:38:09;11.32;;;2.20;;
61373;SDS011;47242;48.158;-1.586;2023-04-15T06:40:34;2.80;;;1.88;;
61373;SDS011;47242;48.158;-1.586;2023-04-15T06:43:00;8.10;;;2.60;;
61373;SDS011;47242;48.158;-1.586;2023-04-15T06:45:26;10.13;;;2.30;;
61373;SDS011;47242;48.158;-1.586;2023-04-15T06:47:52;5.38;;;1.80;;
61373;SDS011;47242;48.158;-1.586;2023-04-15T06:50:17;9.02;;;2.08;;
61373;SDS011;47242;48.158;-1.586;2023-04-15T06:52:43;6.80;;;1.92;;
61373;SDS011;47242;48.158;-1.586;2023-04-15T06:55:09;3.40;;;1.42;;
61373;SDS011;47242;48.158;-1.586;2023-04-15T06:57:34;6.88;;;2.10;;
61373;SDS011;47242;48.158;-1.586;2023-04-15T07:00:00;8.48;;;2.03;;
61373;SDS011;47242;48.158;-1.586;2023-04-15T07:02:26;6.80;;;1.58;;
61373;SDS011;47242;48.158;-1.586;2023-04-15T07:04:52;9.48;;;1.80;;
61373;SDS011;47242;48.158;-1.586;2023-04-15T07:07:18;7.88;;;1.90;;
61373;SDS011;47242;48.158;-1.586;2023-04-15T07:09:43;9.18;;;1.85;;
61373;SDS011;47242;48.158;-1.586;2023-04-15T07:12:09;3.75;;;1.80;;
61373;SDS011;47242;48.158;-1.586;2023-04-15T07:14:35;9.77;;;1.95;;
61373;SDS011;47242;48.158;-1.586;2023-04-15T07:17:01;5.03;;;1.70;;
61373;SDS011;47242;48.158;-1.586;2023-04-15T07:19:27;6.93;;;1.70;;
61373;SDS011;47242;48.158;-1.586;2023-04-15T07:21:52;6.55;;;2.05;;
61373;SDS011;47242;48.158;-1.586;2023-04-15T07:24:18;11.00;;;2.47;;
61373;SDS011;47242;48.158;-1.586;2023-04-15T07:26:44;6.88;;;1.83;;
61373;SDS011;47242;48.158;-1.586;2023-04-15T07:29:10;7.97;;;1.45;;
61373;SDS011;47242;48.158;-1.586;2023-04-15T07:31:36;3.83;;;1.38;;
61373;SDS011;47242;48.158;-1.586;2023-04-15T07:34:02;6.55;;;1.90;;
61373;SDS011;47242;48.158;-1.586;2023-04-15T07:36:29;7.38;;;2.50;;
61373;SDS011;47242;48.158;-1.586;2023-04-15T07:38:55;8.48;;;1.85;;
61373;SDS011;47242;48.158;-1.586;2023-04-15T07:41:21;12.55;;;1.92;;
61373;SDS011;47242;48.158;-1.586;2023-04-15T07:43:47;6.88;;;2.10;;
61373;SDS011;47242;48.158;-1.586;2023-04-15T07:46:13;6.07;;;1.30;;
61373;SDS011;47242;48.158;-1.586;2023-04-15T07:48:39;5.20;;;2.05;;
61373;SDS011;47242;48.158;-1.586;2023-04-15T07:51:05;7.53;;;2.53;;
61373;SDS011;47242;48.158;-1.586;2023-04-15T07:53:31;8.65;;;1.30;;
61373;SDS011;47242;48.158;-1.586;2023-04-15T07:55:57;8.68;;;1.67;;
61373;SDS011;47242;48.158;-1.586;2023-04-15T07:58:23;7.70;;;1.90;;
61373;SDS011;47242;48.158;-1.586;2023-04-15T08:00:50;9.25;;;2.22;;
61373;SDS011;47242;48.158;-1.586;2023-04-15T08:03:15;5.50;;;1.38;;
61373;SDS011;47242;48.158;-1.586;2023-04-15T08:05:41;6.28;;;1.45;;
61373;SDS011;47242;48.158;-1.586;2023-04-15T08:08:07;4.10;;;1.10;;
61373;SDS011;47242;48.158;-1.586;2023-04-15T08:10:32;6.18;;;1.50;;
61373;SDS011;47242;48.158;-1.586;2023-04-15T08:12:58;6.05;;;1.50;;
61373;SDS011;47242;48.158;-1.586;2023-04-15T08:18:01;6.63;;;1.75;;
61373;SDS011;47242;48.158;-1.586;2023-04-15T08:20:26;5.38;;;1.55;;
61373;SDS011;47242;48.158;-1.586;2023-04-15T08:22:52;6.18;;;0.98;;
61373;SDS011;47242;48.158;-1.586;2023-04-15T08:25:18;6.22;;;1.50;;
61373;SDS011;47242;48.158;-1.586;2023-04-15T08:27:44;7.05;;;1.33;;
61373;SDS011;47242;48.158;-1.586;2023-04-15T08:30:10;4.72;;;1.00;;
61373;SDS011;47242;48.158;-1.586;2023-04-15T08:32:36;6.13;;;1.92;;
61373;SDS011;47242;48.158;-1.586;2023-04-15T08:35:02;5.78;;;1.52;;
61373;SDS011;47242;48.158;-1.586;2023-04-15T08:37:28;5.93;;;1.17;;
61373;SDS011;47242;48.158;-1.586;2023-04-15T08:39:54;5.40;;;1.02;;
61373;SDS011;47242;48.158;-1.586;2023-04-15T08:42:22;5.32;;;1.35;;
61373;SDS011;47242;48.158;-1.586;2023-04-15T08:44:55;5.38;;;1.10;;
61373;SDS011;47242;48.158;-1.586;2023-04-15T08:47:25;2.20;;;0.60;;
61373;SDS011;47242;48.158;-1.586;2023-04-15T08:49:55;2.97;;;0.80;;
61373;SDS011;47242;48.158;-1.586;2023-04-15T08:52:24;3.55;;;0.95;;
61373;SDS011;47242;48.158;-1.586;2023-04-15T08:54:50;3.10;;;0.80;;
61373;SDS011;47242;48.158;-1.586;2023-04-15T08:57:22;4.03;;;1.00;;
61373;SDS011;47242;48.158;-1.586;2023-04-15T08:59:52;2.75;;;0.90;;
61373;SDS011;47242;48.158;-1.586;2023-04-15T09:02:20;4.47;;;0.70;;
61373;SDS011;47242;48.158;-1.586;2023-04-15T09:04:47;6.18;;;1.20;;
61373;SDS011;47242;48.158;-1.586;2023-04-15T09:07:12;3.67;;;0.73;;
61373;SDS011;47242;48.158;-1.586;2023-04-15T09:09:38;5.50;;;1.00;;
61373;SDS011;47242;48.158;-1.586;2023-04-15T09:12:06;2.58;;;0.95;;
61373;SDS011;47242;48.158;-1.586;2023-04-15T09:14:32;4.78;;;0.90;;
61373;SDS011;47242;48.158;-1.586;2023-04-15T09:16:59;3.92;;;0.98;;
61373;SDS011;47242;48.158;-1.586;2023-04-15T09:21:54;4.13;;;1.05;;
61373;SDS011;47242;48.158;-1.586;2023-04-15T09:24:21;3.33;;;0.50;;
61373;SDS011;47242;48.158;-1.586;2023-04-15T09:26:47;4.32;;;0.98;;
61373;SDS011;47242;48.158;-1.586;2023-04-15T09:29:17;2.47;;;0.90;;
61373;SDS011;47242;48.158;-1.586;2023-04-15T09:31:43;2.38;;;0.95;;
61373;SDS011;47242;48.158;-1.586;2023-04-15T09:34:09;4.32;;;0.90;;
61373;SDS011;47242;48.158;-1.586;2023-04-15T09:36:37;4.05;;;0.80;;
61373;SDS011;47242;48.158;-1.586;2023-04-15T09:39:17;2.92;;;0.55;;
61373;SDS011;47242;48.158;-1.586;2023-04-15T09:41:42;6.38;;;1.10;;
61373;SDS011;47242;48.158;-1.586;2023-04-15T09:47:04;2.92;;;0.98;;
61373;SDS011;47242;48.158;-1.586;2023-04-15T09:49:30;2.58;;;0.95;;
61373;SDS011;47242;48.158;-1.586;2023-04-15T09:51:58;2.63;;;0.80;;
61373;SDS011;47242;48.158;-1.586;2023-04-15T09:54:26;2.80;;;0.50;;
61373;SDS011;47242;48.158;-1.586;2023-04-15T09:57:03;4.15;;;0.98;;
61373;SDS011;47242;48.158;-1.586;2023-04-15T09:59:34;1.98;;;0.75;;
61373;SDS011;47242;48.158;-1.586;2023-04-15T10:02:00;2.28;;;0.75;;
61373;SDS011;47242;48.158;-1.586;2023-04-15T10:04:28;2.78;;;0.88;;
61373;SDS011;47242;48.158;-1.586;2023-04-15T10:06:56;2.58;;;0.70;;
61373;SDS011;47242;48.158;-1.586;2023-04-15T10:09:22;2.55;;;0.80;;
61373;SDS011;47242;48.158;-1.586;2023-04-15T10:11:47;4.07;;;0.70;;
61373;SDS011;47242;48.158;-1.586;2023-04-15T10:14:14;3.47;;;1.02;;
61373;SDS011;47242;48.158;-1.586;2023-04-15T10:16:40;3.50;;;0.40;;
61373;SDS011;47242;48.158;-1.586;2023-04-15T10:19:12;2.72;;;0.60;;
61373;SDS011;47242;48.158;-1.586;2023-04-15T10:21:40;1.60;;;0.70;;
61373;SDS011;47242;48.158;-1.586;2023-04-15T10:24:06;2.67;;;0.60;;
61373;SDS011;47242;48.158;-1.586;2023-04-15T10:26:32;1.92;;;0.98;;
61373;SDS011;47242;48.158;-1.586;2023-04-15T10:28:58;5.13;;;1.45;;
61373;SDS011;47242;48.158;-1.586;2023-04-15T10:31:25;2.78;;;0.73;;
61373;SDS011;47242;48.158;-1.586;2023-04-15T10:33:51;4.63;;;0.80;;
61373;SDS011;47242;48.158;-1.586;2023-04-15T10:36:17;2.42;;;0.63;;
61373;SDS011;47242;48.158;-1.586;2023-04-15T10:38:44;2.03;;;0.82;;
61373;SDS011;47242;48.158;-1.586;2023-04-15T10:41:11;2.60;;;0.70;;
61373;SDS011;47242;48.158;-1.586;2023-04-15T10:43:51;1.90;;;0.70;;
61373;SDS011;47242;48.158;-1.586;2023-04-15T10:46:22;3.28;;;0.70;;
61373;SDS011;47242;48.158;-1.586;2023-04-15T10:48:49;2.08;;;0.70;;
61373;SDS011;47242;48.158;-1.586;2023-04-15T10:51:22;3.03;;;0.85;;
61373;SDS011;47242;48.158;-1.586;2023-04-15T10:53:54;2.33;;;0.80;;
61373;SDS011;47242;48.158;-1.586;2023-04-15T10:56:21;4.43;;;0.70;;
61373;SDS011;47242;48.158;-1.586;2023-04-15T10:58:47;4.32;;;0.80;;
61373;SDS011;47242;48.158;-1.586;2023-04-15T11:01:13;1.67;;;0.70;;
61373;SDS011;47242;48.158;-1.586;2023-04-15T11:03:39;2.35;;;0.60;;
61373;SDS011;47242;48.158;-1.586;2023-04-15T11:06:07;3.35;;;0.73;;
61373;SDS011;47242;48.158;-1.586;2023-04-15T11:08:55;1.65;;;0.55;;
61373;SDS011;47242;48.158;-1.586;2023-04-15T11:14:13;1.73;;;0.63;;
61373;SDS011;47242;48.158;-1.586;2023-04-15T11:16:43;3.85;;;0.77;;
61373;SDS011;47242;48.158;-1.586;2023-04-15T11:19:09;5.15;;;0.98;;
61373;SDS011;47242;48.158;-1.586;2023-04-15T11:21:35;4.32;;;0.95;;
61373;SDS011;47242;48.158;-1.586;2023-04-15T11:24:00;3.30;;;1.00;;
61373;SDS011;47242;48.158;-1.586;2023-04-15T11:26:26;3.17;;;0.60;;
61373;SDS011;47242;48.158;-1.586;2023-04-15T11:28:51;3.38;;;1.10;;
61373;SDS011;47242;48.158;-1.586;2023-04-15T11:31:18;3.15;;;0.77;;
61373;SDS011;47242;48.158;-1.586;2023-04-15T11:33:53;2.92;;;0.70;;
61373;SDS011;47242;48.158;-1.586;2023-04-15T11:36:22;4.03;;;0.80;;
61373;SDS011;47242;48.158;-1.586;2023-04-15T11:38:52;1.85;;;0.95;;
61373;SDS011;47242;48.158;-1.586;2023-04-15T11:41:22;3.17;;;0.70;;
61373;SDS011;47242;48.158;-1.586;2023-04-15T11:43:48;4.05;;;0.85;;
61373;SDS011;47242;48.158;-1.586;2023-04-15T11:46:15;2.35;;;0.90;;
61373;SDS011;47242;48.158;-1.586;2023-04-15T11:48:44;2.63;;;0.57;;
61373;SDS011;47242;48.158;-1.586;2023-04-15T11:56:22;4.95;;;0.80;;
61373;SDS011;47242;48.158;-1.586;2023-04-15T11:58:53;3.33;;;0.60;;
61373;SDS011;47242;48.158;-1.586;2023-04-15T12:01:36;0.80;;;0.52;;
61373;SDS011;47242;48.158;-1.586;2023-04-15T12:04:11;3.00;;;1.05;;
61373;SDS011;47242;48.158;-1.586;2023-04-15T12:06:45;4.38;;;1.33;;
61373;SDS011;47242;48.158;-1.586;2023-04-15T12:09:12;3.17;;;1.08;;
61373;SDS011;47242;48.158;-1.586;2023-04-15T12:19:12;3.03;;;0.85;;
61373;SDS011;47242;48.158;-1.586;2023-04-15T12:21:42;3.58;;;0.77;;
61373;SDS011;47242;48.158;-1.586;2023-04-15T12:24:10;1.63;;;0.50;;
61373;SDS011;47242;48.158;-1.586;2023-04-15T12:29:17;2.50;;;0.90;;
61373;SDS011;47242;48.158;-1.586;2023-04-15T12:31:50;4.45;;;0.98;;
61373;SDS011;47242;48.158;-1.586;2023-04-15T12:34:30;2.35;;;1.30;;
61373;SDS011;47242;48.158;-1.586;2023-04-15T12:36:58;1.48;;;0.68;;
61373;SDS011;47242;48.158;-1.586;2023-04-15T12:39:26;3.28;;;0.90;;
61373;SDS011;47242;48.158;-1.586;2023-04-15T12:41:53;1.65;;;0.77;;
61373;SDS011;47242;48.158;-1.586;2023-04-15T12:44:21;4.53;;;1.00;;
61373;SDS011;47242;48.158;-1.586;2023-04-15T12:46:48;3.13;;;0.88;;
61373;SDS011;47242;48.158;-1.586;2023-04-15T12:49:17;3.10;;;0.70;;
61373;SDS011;47242;48.158;-1.586;2023-04-15T12:51:45;2.05;;;1.02;;
61373;SDS011;47242;48.158;-1.586;2023-04-15T12:54:13;2.90;;;0.73;;
61373;SDS011;47242;48.158;-1.586;2023-04-15T12:56:38;2.22;;;0.75;;
61373;SDS011;47242;48.158;-1.586;2023-04-15T12:59:04;3.38;;;1.00;;
61373;SDS011;47242;48.158;-1.586;2023-04-15T13:01:29;2.67;;;0.80;;
61373;SDS011;47242;48.158;-1.586;2023-04-15T13:03:55;4.00;;;0.98;;
61373;SDS011;47242;48.158;-1.586;2023-04-15T13:06:21;1.55;;;0.60;;
61373;SDS011;47242;48.158;-1.586;2023-04-15T13:08:48;4.68;;;0.93;;
61373;SDS011;47242;48.158;-1.586;2023-04-15T13:11:13;1.50;;;0.50;;
61373;SDS011;47242;48.158;-1.586;2023-04-15T13:13:39;2.67;;;0.70;;
61373;SDS011;47242;48.158;-1.586;2023-04-15T13:16:05;2.70;;;0.60;;
61373;SDS011;47242;48.158;-1.586;2023-04-15T13:18:31;2.45;;;0.65;;
61373;SDS011;47242;48.158;-1.586;2023-04-15T13:20:58;1.83;;;0.60;;
61373;SDS011;47242;48.158;-1.586;2023-04-15T13:23:25;2.08;;;0.80;;
61373;SDS011;47242;48.158;-1.586;2023-04-15T13:25:50;1.52;;;0.60;;
61373;SDS011;47242;48.158;-1.586;2023-04-15T13:28:16;3.45;;;0.70;;
61373;SDS011;47242;48.158;-1.586;2023-04-15T13:30:42;2.75;;;0.82;;
61373;SDS011;47242;48.158;-1.586;2023-04-15T13:33:08;1.50;;;0.60;;
61373;SDS011;47242;48.158;-1.586;2023-04-15T13:35:33;2.78;;;0.68;;
61373;SDS011;47242;48.158;-1.586;2023-04-15T13:37:59;4.05;;;0.52;;
61373;SDS011;47242;48.158;-1.586;2023-04-15T13:40:25;3.67;;;0.82;;
61373;SDS011;47242;48.158;-1.586;2023-04-15T13:42:51;2.13;;;0.85;;
61373;SDS011;47242;48.158;-1.586;2023-04-15T13:45:17;3.97;;;0.82;;
61373;SDS011;47242;48.158;-1.586;2023-04-15T13:47:43;1.75;;;0.60;;
61373;SDS011;47242;48.158;-1.586;2023-04-15T13:50:09;1.60;;;0.60;;
61373;SDS011;47242;48.158;-1.586;2023-04-15T13:52:35;1.98;;;0.77;;
61373;SDS011;47242;48.158;-1.586;2023-04-15T13:55:01;4.05;;;0.82;;
61373;SDS011;47242;48.158;-1.586;2023-04-15T13:57:27;1.42;;;0.70;;
61373;SDS011;47242;48.158;-1.586;2023-04-15T13:59:53;1.88;;;0.60;;
61373;SDS011;47242;48.158;-1.586;2023-04-15T14:02:20;3.75;;;0.80;;
61373;SDS011;47242;48.158;-1.586;2023-04-15T14:04:47;2.53;;;0.63;;
61373;SDS011;47242;48.158;-1.586;2023-04-15T14:07:12;2.50;;;0.85;;
61373;SDS011;47242;48.158;-1.586;2023-04-15T14:09:38;2.30;;;0.90;;
61373;SDS011;47242;48.158;-1.586;2023-04-15T14:12:04;2.95;;;0.90;;
61373;SDS011;47242;48.158;-1.586;2023-04-15T14:14:29;2.92;;;0.75;;
61373;SDS011;47242;48.158;-1.586;2023-04-15T14:16:55;2.42;;;0.57;;
61373;SDS011;47242;48.158;-1.586;2023-04-15T14:19:21;2.78;;;1.05;;
61373;SDS011;47242;48.158;-1.586;2023-04-15T14:21:48;1.30;;;0.68;;
61373;SDS011;47242;48.158;-1.586;2023-04-15T14:24:13;1.75;;;0.57;;
61373;SDS011;47242;48.158;-1.586;2023-04-15T14:26:39;2.88;;;0.70;;
61373;SDS011;47242;48.158;-1.586;2023-04-15T14:29:04;1.80;;;0.50;;
61373;SDS011;47242;48.158;-1.586;2023-04-15T14:31:30;1.42;;;0.70;;
61373;SDS011;47242;48.158;-1.586;2023-04-15T14:33:56;1.70;;;0.60;;
61373;SDS011;47242;48.158;-1.586;2023-04-15T14:36:21;4.45;;;0.98;;
61373;SDS011;47242;48.158;-1.586;2023-04-15T14:38:47;2.60;;;1.10;;
61373;SDS011;47242;48.158;-1.586;2023-04-15T14:41:13;1.60;;;0.82;;
61373;SDS011;47242;48.158;-1.586;2023-04-15T14:43:38;1.02;;;0.60;;
61373;SDS011;47242;48.158;-1.586;2023-04-15T14:46:05;1.33;;;0.70;;
61373;SDS011;47242;48.158;-1.586;2023-04-15T14:48:30;3.42;;;0.70;;
61373;SDS011;47242;48.158;-1.586;2023-04-15T14:50:56;1.42;;;0.57;;
61373;SDS011;47242;48.158;-1.586;2023-04-15T14:53:23;2.05;;;0.70;;
61373;SDS011;47242;48.158;-1.586;2023-04-15T14:55:48;3.25;;;0.75;;
61373;SDS011;47242;48.158;-1.586;2023-04-15T14:58:14;3.63;;;0.90;;
61373;SDS011;47242;48.158;-1.586;2023-04-15T15:00:40;2.67;;;0.60;;
61373;SDS011;47242;48.158;-1.586;2023-04-15T15:03:08;2.05;;;0.68;;
61373;SDS011;47242;48.158;-1.586;2023-04-15T15:05:40;0.90;;;0.50;;
61373;SDS011;47242;48.158;-1.586;2023-04-15T15:08:07;1.08;;;0.63;;
61373;SDS011;47242;48.158;-1.586;2023-04-15T15:10:36;1.45;;;0.85;;
61373;SDS011;47242;48.158;-1.586;2023-04-15T15:13:04;2.75;;;0.82;;
61373;SDS011;47242;48.158;-1.586;2023-04-15T15:15:30;2.28;;;0.50;;
61373;SDS011;47242;48.158;-1.586;2023-04-15T15:17:56;4.10;;;0.63;;
61373;SDS011;47242;48.158;-1.586;2023-04-15T15:20:22;0.90;;;0.57;;
61373;SDS011;47242;48.158;-1.586;2023-04-15T15:22:48;1.30;;;0.50;;
61373;SDS011;47242;48.158;-1.586;2023-04-15T15:25:14;2.95;;;0.70;;
61373;SDS011;47242;48.158;-1.586;2023-04-15T15:27:40;2.35;;;0.60;;
61373;SDS011;47242;48.158;-1.586;2023-04-15T15:30:06;1.38;;;0.55;;
61373;SDS011;47242;48.158;-1.586;2023-04-15T15:32:32;2.33;;;0.80;;
61373;SDS011;47242;48.158;-1.586;2023-04-15T15:34:58;3.60;;;0.80;;
61373;SDS011;47242;48.158;-1.586;2023-04-15T15:37:24;0.80;;;0.57;;
61373;SDS011;47242;48.158;-1.586;2023-04-15T15:39:50;2.95;;;0.80;;
61373;SDS011;47242;48.158;-1.586;2023-04-15T15:42:17;1.40;;;0.55;;
61373;SDS011;47242;48.158;-1.586;2023-04-15T15:44:43;3.55;;;0.70;;
61373;SDS011;47242;48.158;-1.586;2023-04-15T15:47:09;2.33;;;0.60;;
61373;SDS011;47242;48.158;-1.586;2023-04-15T15:49:35;1.40;;;0.60;;
61373;SDS011;47242;48.158;-1.586;2023-04-15T15:52:01;3.53;;;0.82;;
61373;SDS011;47242;48.158;-1.586;2023-04-15T15:54:27;2.30;;;0.80;;
61373;SDS011;47242;48.158;-1.586;2023-04-15T15:56:53;3.20;;;0.82;;
61373;SDS011;47242;48.158;-1.586;2023-04-15T15:59:18;2.50;;;0.68;;
61373;SDS011;47242;48.158;-1.586;2023-04-15T16:01:44;1.35;;;0.85;;
61373;SDS011;47242;48.158;-1.586;2023-04-15T16:04:10;4.40;;;1.10;;
61373;SDS011;47242;48.158;-1.586;2023-04-15T16:06:36;2.85;;;0.88;;
61373;SDS011;47242;48.158;-1.586;2023-04-15T16:09:01;4.47;;;0.85;;
61373;SDS011;47242;48.158;-1.586;2023-04-15T16:11:27;3.42;;;0.68;;
61373;SDS011;47242;48.158;-1.586;2023-04-15T16:13:53;2.25;;;0.60;;
61373;SDS011;47242;48.158;-1.586;2023-04-15T16:16:19;4.82;;;1.02;;
61373;SDS011;47242;48.158;-1.586;2023-04-15T16:18:44;10.27;;;1.85;;
61373;SDS011;47242;48.158;-1.586;2023-04-15T16:21:10;3.55;;;0.93;;
61373;SDS011;47242;48.158;-1.586;2023-04-15T16:23:36;7.22;;;2.30;;
61373;SDS011;47242;48.158;-1.586;2023-04-15T16:26:01;4.68;;;1.67;;
61373;SDS011;47242;48.158;-1.586;2023-04-15T16:28:27;1.38;;;0.80;;
61373;SDS011;47242;48.158;-1.586;2023-04-15T16:30:53;5.40;;;0.98;;
61373;SDS011;47242;48.158;-1.586;2023-04-15T16:33:19;5.20;;;1.33;;
61373;SDS011;47242;48.158;-1.586;2023-04-15T16:35:45;2.25;;;0.93;;
61373;SDS011;47242;48.158;-1.586;2023-04-15T16:38:11;2.38;;;0.90;;
61373;SDS011;47242;48.158;-1.586;2023-04-15T16:40:36;1.85;;;0.50;;
61373;SDS011;47242;48.158;-1.586;2023-04-15T16:43:03;1.33;;;0.70;;
61373;SDS011;47242;48.158;-1.586;2023-04-15T16:45:31;2.85;;;1.00;;
61373;SDS011;47242;48.158;-1.586;2023-04-15T16:47:57;1.67;;;0.93;;
61373;SDS011;47242;48.158;-1.586;2023-04-15T16:50:22;2.40;;;0.82;;
61373;SDS011;47242;48.158;-1.586;2023-04-15T16:52:48;1.75;;;0.75;;
61373;SDS011;47242;48.158;-1.586;2023-04-15T16:55:14;0.90;;;0.65;;
61373;SDS011;47242;48.158;-1.586;2023-04-15T16:57:39;1.02;;;0.70;;
61373;SDS011;47242;48.158;-1.586;2023-04-15T17:00:05;7.20;;;1.10;;
61373;SDS011;47242;48.158;-1.586;2023-04-15T17:02:31;2.20;;;0.80;;
61373;SDS011;47242;48.158;-1.586;2023-04-15T17:04:57;1.48;;;0.60;;
61373;SDS011;47242;48.158;-1.586;2023-04-15T17:07:23;1.83;;;1.20;;
61373;SDS011;47242;48.158;-1.586;2023-04-15T17:09:48;2.45;;;0.77;;
61373;SDS011;47242;48.158;-1.586;2023-04-15T17:12:14;5.20;;;0.80;;
61373;SDS011;47242;48.158;-1.586;2023-04-15T17:14:39;3.85;;;0.88;;
61373;SDS011;47242;48.158;-1.586;2023-04-15T17:17:05;3.85;;;1.15;;
61373;SDS011;47242;48.158;-1.586;2023-04-15T17:19:31;2.65;;;1.00;;
61373;SDS011;47242;48.158;-1.586;2023-04-15T17:21:58;3.33;;;1.08;;
61373;SDS011;47242;48.158;-1.586;2023-04-15T17:24:23;3.00;;;0.85;;
61373;SDS011;47242;48.158;-1.586;2023-04-15T17:26:52;5.20;;;0.80;;
61373;SDS011;47242;48.158;-1.586;2023-04-15T17:29:18;5.82;;;1.20;;
61373;SDS011;47242;48.158;-1.586;2023-04-15T17:31:46;4.15;;;2.17;;
61373;SDS011;47242;48.158;-1.586;2023-04-15T17:34:12;2.90;;;1.20;;
61373;SDS011;47242;48.158;-1.586;2023-04-15T17:36:37;5.65;;;1.52;;
61373;SDS011;47242;48.158;-1.586;2023-04-15T17:39:03;1.73;;;0.93;;
61373;SDS011;47242;48.158;-1.586;2023-04-15T17:41:29;4.32;;;1.02;;
61373;SDS011;47242;48.158;-1.586;2023-04-15T17:43:54;13.82;;;3.42;;
61373;SDS011;47242;48.158;-1.586;2023-04-15T17:46:21;4.22;;;1.40;;
61373;SDS011;47242;48.158;-1.586;2023-04-15T17:48:47;18.90;;;6.80;;
61373;SDS011;47242;48.158;-1.586;2023-04-15T17:51:13;3.35;;;0.95;;
61373;SDS011;47242;48.158;-1.586;2023-04-15T17:53:40;7.07;;;1.45;;
61373;SDS011;47242;48.158;-1.586;2023-04-15T17:56:06;6.05;;;2.40;;
61373;SDS011;47242;48.158;-1.586;2023-04-15T17:58:31;10.25;;;1.92;;
61373;SDS011;47242;48.158;-1.586;2023-04-15T18:00:57;5.35;;;1.30;;
61373;SDS011;47242;48.158;-1.586;2023-04-15T18:03:23;3.92;;;1.17;;
61373;SDS011;47242;48.158;-1.586;2023-04-15T18:05:48;3.67;;;1.05;;
61373;SDS011;47242;48.158;-1.586;2023-04-15T18:08:14;3.38;;;1.20;;
61373;SDS011;47242;48.158;-1.586;2023-04-15T18:10:40;3.55;;;1.15;;
61373;SDS011;47242;48.158;-1.586;2023-04-15T18:13:06;4.50;;;1.73;;
61373;SDS011;47242;48.158;-1.586;2023-04-15T18:15:31;4.10;;;1.52;;
61373;SDS011;47242;48.158;-1.586;2023-04-15T18:17:58;3.00;;;1.20;;
61373;SDS011;47242;48.158;-1.586;2023-04-15T18:20:23;7.40;;;1.70;;
61373;SDS011;47242;48.158;-1.586;2023-04-15T18:22:49;4.25;;;1.83;;
61373;SDS011;47242;48.158;-1.586;2023-04-15T18:25:15;3.60;;;1.60;;
61373;SDS011;47242;48.158;-1.586;2023-04-15T18:27:41;4.88;;;1.80;;
61373;SDS011;47242;48.158;-1.586;2023-04-15T18:30:10;2.35;;;1.25;;
61373;SDS011;47242;48.158;-1.586;2023-04-15T18:32:37;2.07;;;1.50;;
61373;SDS011;47242;48.158;-1.586;2023-04-15T18:35:03;3.85;;;1.40;;
61373;SDS011;47242;48.158;-1.586;2023-04-15T18:37:30;2.67;;;1.58;;
61373;SDS011;47242;48.158;-1.586;2023-04-15T18:39:56;4.18;;;2.10;;
61373;SDS011;47242;48.158;-1.586;2023-04-15T18:42:23;6.38;;;2.08;;
61373;SDS011;47242;48.158;-1.586;2023-04-15T18:44:49;5.82;;;2.30;;
61373;SDS011;47242;48.158;-1.586;2023-04-15T18:47:17;7.20;;;2.20;;
61373;SDS011;47242;48.158;-1.586;2023-04-15T18:49:43;3.95;;;1.90;;
61373;SDS011;47242;48.158;-1.586;2023-04-15T18:52:09;4.30;;;2.22;;
61373;SDS011;47242;48.158;-1.586;2023-04-15T18:54:35;6.43;;;2.70;;
61373;SDS011;47242;48.158;-1.586;2023-04-15T18:57:01;4.60;;;2.65;;
61373;SDS011;47242;48.158;-1.586;2023-04-15T18:59:30;5.55;;;2.25;;
61373;SDS011;47242;48.158;-1.586;2023-04-15T19:01:57;6.20;;;2.25;;
61373;SDS011;47242;48.158;-1.586;2023-04-15T19:04:23;4.20;;;1.83;;
61373;SDS011;47242;48.158;-1.586;2023-04-15T19:06:48;6.88;;;2.05;;
61373;SDS011;47242;48.158;-1.586;2023-04-15T19:09:14;3.42;;;2.00;;
61373;SDS011;47242;48.158;-1.586;2023-04-15T19:11:41;4.20;;;1.75;;
61373;SDS011;47242;48.158;-1.586;2023-04-15T19:14:07;2.65;;;1.45;;
61373;SDS011;47242;48.158;-1.586;2023-04-15T19:16:34;2.88;;;1.60;;
61373;SDS011;47242;48.158;-1.586;2023-04-15T19:18:59;2.97;;;1.88;;
61373;SDS011;47242;48.158;-1.586;2023-04-15T19:21:25;3.85;;;2.15;;
61373;SDS011;47242;48.158;-1.586;2023-04-15T19:23:51;5.78;;;2.50;;
61373;SDS011;47242;48.158;-1.586;2023-04-15T19:26:17;2.33;;;1.80;;
61373;SDS011;47242;48.158;-1.586;2023-04-15T19:28:44;2.53;;;2.00;;